sensor_id;sensor_type;location;lat;lon;timestamp;P1;durP1;ratioP1;P2;durP2;ratioP2
56830;SDS011;42713;42.676;23.352;2023-07-24T00:01:27;14.40;;;8.38;;
56830;SDS011;42713;42.676;23.352;2023-07-24T00:03:53;15.57;;;8.68;;
56830;SDS011;42713;42.676;23.352;2023-07-24T00:06:21;16.08;;;8.32;;
56830;SDS011;42713;42.676;23.352;2023-07-24T00:08:46;16.02;;;8.48;;
56830;SDS011;42713;42.676;23.352;2023-07-24T00:11:12;18.88;;;8.23;;
56830;SDS011;42713;42.676;23.352;2023-07-24T00:13:37;16.73;;;8.32;;
56830;SDS011;42713;42.676;23.352;2023-07-24T00:16:09;16.23;;;7.90;;
56830;SDS011;42713;42.676;23.352;2023-07-24T00:18:35;15.70;;;8.40;;
56830;SDS011;42713;42.676;23.352;2023-07-24T00:21:00;16.60;;;8.95;;
56830;SDS011;42713;42.676;23.352;2023-07-24T00:23:26;17.33;;;8.30;;
56830;SDS011;42713;42.676;23.352;2023-07-24T00:25:51;14.70;;;7.82;;
56830;SDS011;42713;42.676;23.352;2023-07-24T00:28:17;14.73;;;8.15;;
56830;SDS011;42713;42.676;23.352;2023-07-24T00:30:42;15.80;;;8.52;;
56830;SDS011;42713;42.676;23.352;2023-07-24T00:33:08;15.07;;;7.55;;
56830;SDS011;42713;42.676;23.352;2023-07-24T00:35:34;17.25;;;8.18;;
56830;SDS011;42713;42.676;23.352;2023-07-24T00:37:59;15.15;;;8.38;;
56830;SDS011;42713;42.676;23.352;2023-07-24T00:40:25;16.17;;;8.43;;
56830;SDS011;42713;42.676;23.352;2023-07-24T00:42:50;13.77;;;8.05;;
56830;SDS011;42713;42.676;23.352;2023-07-24T00:45:16;17.30;;;8.30;;
56830;SDS011;42713;42.676;23.352;2023-07-24T00:47:44;16.02;;;8.07;;
56830;SDS011;42713;42.676;23.352;2023-07-24T00:50:10;16.13;;;8.60;;
56830;SDS011;42713;42.676;23.352;2023-07-24T00:52:36;14.13;;;8.15;;
56830;SDS011;42713;42.676;23.352;2023-07-24T00:55:02;14.52;;;8.32;;
56830;SDS011;42713;42.676;23.352;2023-07-24T00:57:28;14.77;;;7.97;;
56830;SDS011;42713;42.676;23.352;2023-07-24T00:59:53;17.30;;;8.25;;
56830;SDS011;42713;42.676;23.352;2023-07-24T01:02:19;19.38;;;8.68;;
56830;SDS011;42713;42.676;23.352;2023-07-24T01:04:45;14.07;;;8.15;;
56830;SDS011;42713;42.676;23.352;2023-07-24T01:07:11;16.40;;;7.93;;
56830;SDS011;42713;42.676;23.352;2023-07-24T01:09:37;14.15;;;8.23;;
56830;SDS011;42713;42.676;23.352;2023-07-24T01:12:04;14.73;;;8.18;;
56830;SDS011;42713;42.676;23.352;2023-07-24T01:14:55;17.25;;;7.93;;
56830;SDS011;42713;42.676;23.352;2023-07-24T01:17:28;17.35;;;8.00;;
56830;SDS011;42713;42.676;23.352;2023-07-24T01:19:57;17.20;;;8.77;;
56830;SDS011;42713;42.676;23.352;2023-07-24T01:27:54;17.58;;;8.25;;
56830;SDS011;42713;42.676;23.352;2023-07-24T01:30:19;15.25;;;7.75;;
56830;SDS011;42713;42.676;23.352;2023-07-24T01:32:46;14.00;;;8.35;;
56830;SDS011;42713;42.676;23.352;2023-07-24T01:35:12;16.45;;;8.85;;
56830;SDS011;42713;42.676;23.352;2023-07-24T01:37:37;17.15;;;8.15;;
56830;SDS011;42713;42.676;23.352;2023-07-24T01:40:08;13.88;;;7.57;;
56830;SDS011;42713;42.676;23.352;2023-07-24T01:42:35;14.05;;;8.15;;
56830;SDS011;42713;42.676;23.352;2023-07-24T01:45:02;15.15;;;8.73;;
56830;SDS011;42713;42.676;23.352;2023-07-24T01:47:29;17.85;;;8.23;;
56830;SDS011;42713;42.676;23.352;2023-07-24T01:49:57;14.73;;;8.65;;
56830;SDS011;42713;42.676;23.352;2023-07-24T01:52:22;15.23;;;8.10;;
56830;SDS011;42713;42.676;23.352;2023-07-24T01:54:48;13.25;;;8.30;;
56830;SDS011;42713;42.676;23.352;2023-07-24T01:57:13;17.95;;;8.23;;
56830;SDS011;42713;42.676;23.352;2023-07-24T01:59:39;14.98;;;8.25;;
56830;SDS011;42713;42.676;23.352;2023-07-24T02:02:05;16.08;;;8.73;;
56830;SDS011;42713;42.676;23.352;2023-07-24T02:04:30;15.13;;;8.20;;
56830;SDS011;42713;42.676;23.352;2023-07-24T02:06:56;17.63;;;8.35;;
56830;SDS011;42713;42.676;23.352;2023-07-24T02:09:21;14.75;;;8.20;;
56830;SDS011;42713;42.676;23.352;2023-07-24T02:11:47;14.57;;;7.85;;
56830;SDS011;42713;42.676;23.352;2023-07-24T02:14:13;14.35;;;7.78;;
56830;SDS011;42713;42.676;23.352;2023-07-24T02:16:39;16.63;;;7.70;;
56830;SDS011;42713;42.676;23.352;2023-07-24T02:19:05;14.88;;;8.00;;
56830;SDS011;42713;42.676;23.352;2023-07-24T02:21:31;13.65;;;8.20;;
56830;SDS011;42713;42.676;23.352;2023-07-24T02:23:57;14.93;;;7.68;;
56830;SDS011;42713;42.676;23.352;2023-07-24T02:26:22;17.38;;;8.15;;
56830;SDS011;42713;42.676;23.352;2023-07-24T02:28:48;14.35;;;8.30;;
56830;SDS011;42713;42.676;23.352;2023-07-24T02:31:13;14.00;;;8.15;;
56830;SDS011;42713;42.676;23.352;2023-07-24T02:33:39;15.18;;;8.55;;
56830;SDS011;42713;42.676;23.352;2023-07-24T02:36:04;16.42;;;8.57;;
56830;SDS011;42713;42.676;23.352;2023-07-24T02:38:30;20.60;;;9.20;;
56830;SDS011;42713;42.676;23.352;2023-07-24T02:40:55;18.20;;;8.65;;
56830;SDS011;42713;42.676;23.352;2023-07-24T02:43:21;14.68;;;7.78;;
56830;SDS011;42713;42.676;23.352;2023-07-24T02:45:46;15.00;;;7.85;;
56830;SDS011;42713;42.676;23.352;2023-07-24T02:48:12;20.75;;;8.82;;
56830;SDS011;42713;42.676;23.352;2023-07-24T02:50:37;15.68;;;8.13;;
56830;SDS011;42713;42.676;23.352;2023-07-24T02:53:02;15.45;;;8.82;;
56830;SDS011;42713;42.676;23.352;2023-07-24T02:55:29;15.38;;;8.73;;
56830;SDS011;42713;42.676;23.352;2023-07-24T02:57:54;18.83;;;9.18;;
56830;SDS011;42713;42.676;23.352;2023-07-24T03:00:20;21.45;;;8.90;;
56830;SDS011;42713;42.676;23.352;2023-07-24T03:02:45;17.17;;;8.48;;
56830;SDS011;42713;42.676;23.352;2023-07-24T03:05:10;14.63;;;8.45;;
56830;SDS011;42713;42.676;23.352;2023-07-24T03:07:36;15.05;;;8.55;;
56830;SDS011;42713;42.676;23.352;2023-07-24T03:10:02;15.77;;;8.43;;
56830;SDS011;42713;42.676;23.352;2023-07-24T03:12:28;16.38;;;9.23;;
56830;SDS011;42713;42.676;23.352;2023-07-24T03:14:53;16.67;;;8.38;;
56830;SDS011;42713;42.676;23.352;2023-07-24T03:17:19;17.67;;;7.90;;
56830;SDS011;42713;42.676;23.352;2023-07-24T03:19:44;15.00;;;8.25;;
56830;SDS011;42713;42.676;23.352;2023-07-24T03:22:10;14.82;;;8.55;;
56830;SDS011;42713;42.676;23.352;2023-07-24T03:24:35;15.82;;;8.32;;
56830;SDS011;42713;42.676;23.352;2023-07-24T03:27:01;14.77;;;8.10;;
56830;SDS011;42713;42.676;23.352;2023-07-24T03:29:27;18.35;;;9.05;;
56830;SDS011;42713;42.676;23.352;2023-07-24T03:31:53;15.48;;;8.50;;
56830;SDS011;42713;42.676;23.352;2023-07-24T03:34:18;15.82;;;8.98;;
56830;SDS011;42713;42.676;23.352;2023-07-24T03:36:44;14.38;;;8.73;;
56830;SDS011;42713;42.676;23.352;2023-07-24T03:39:10;16.30;;;9.05;;
56830;SDS011;42713;42.676;23.352;2023-07-24T03:41:38;16.67;;;8.90;;
56830;SDS011;42713;42.676;23.352;2023-07-24T03:44:08;16.55;;;9.45;;
56830;SDS011;42713;42.676;23.352;2023-07-24T03:46:34;22.52;;;10.02;;
56830;SDS011;42713;42.676;23.352;2023-07-24T03:49:00;19.63;;;9.27;;
56830;SDS011;42713;42.676;23.352;2023-07-24T03:51:25;24.15;;;9.57;;
56830;SDS011;42713;42.676;23.352;2023-07-24T03:53:51;24.20;;;9.13;;
56830;SDS011;42713;42.676;23.352;2023-07-24T03:56:16;16.77;;;9.27;;
56830;SDS011;42713;42.676;23.352;2023-07-24T03:58:42;19.35;;;8.60;;
56830;SDS011;42713;42.676;23.352;2023-07-24T04:01:08;19.13;;;9.73;;
56830;SDS011;42713;42.676;23.352;2023-07-24T04:03:34;23.02;;;9.10;;
56830;SDS011;42713;42.676;23.352;2023-07-24T04:06:00;19.67;;;9.07;;
56830;SDS011;42713;42.676;23.352;2023-07-24T04:08:26;18.75;;;9.18;;
56830;SDS011;42713;42.676;23.352;2023-07-24T04:10:51;17.58;;;9.27;;
56830;SDS011;42713;42.676;23.352;2023-07-24T04:13:17;15.45;;;8.77;;
56830;SDS011;42713;42.676;23.352;2023-07-24T04:15:43;17.40;;;9.45;;
56830;SDS011;42713;42.676;23.352;2023-07-24T04:18:09;16.55;;;9.18;;
56830;SDS011;42713;42.676;23.352;2023-07-24T04:20:35;19.85;;;11.10;;
56830;SDS011;42713;42.676;23.352;2023-07-24T04:23:01;24.35;;;12.13;;
56830;SDS011;42713;42.676;23.352;2023-07-24T04:25:26;24.88;;;11.57;;
56830;SDS011;42713;42.676;23.352;2023-07-24T04:27:51;21.38;;;11.48;;
56830;SDS011;42713;42.676;23.352;2023-07-24T04:30:17;20.13;;;11.32;;
56830;SDS011;42713;42.676;23.352;2023-07-24T04:32:42;21.20;;;11.27;;
56830;SDS011;42713;42.676;23.352;2023-07-24T04:35:08;17.77;;;9.88;;
56830;SDS011;42713;42.676;23.352;2023-07-24T04:37:34;19.75;;;10.32;;
56830;SDS011;42713;42.676;23.352;2023-07-24T04:39:59;21.83;;;10.70;;
56830;SDS011;42713;42.676;23.352;2023-07-24T04:42:26;21.08;;;10.45;;
56830;SDS011;42713;42.676;23.352;2023-07-24T04:44:51;18.23;;;9.93;;
56830;SDS011;42713;42.676;23.352;2023-07-24T04:47:17;17.85;;;10.30;;
56830;SDS011;42713;42.676;23.352;2023-07-24T04:49:43;18.23;;;10.38;;
56830;SDS011;42713;42.676;23.352;2023-07-24T04:52:08;18.95;;;10.10;;
56830;SDS011;42713;42.676;23.352;2023-07-24T04:54:34;18.27;;;9.50;;
56830;SDS011;42713;42.676;23.352;2023-07-24T04:56:59;21.48;;;10.13;;
56830;SDS011;42713;42.676;23.352;2023-07-24T04:59:24;18.35;;;9.77;;
56830;SDS011;42713;42.676;23.352;2023-07-24T05:01:50;19.15;;;9.98;;
56830;SDS011;42713;42.676;23.352;2023-07-24T05:04:15;17.23;;;9.65;;
56830;SDS011;42713;42.676;23.352;2023-07-24T05:06:41;19.13;;;9.63;;
56830;SDS011;42713;42.676;23.352;2023-07-24T05:09:07;18.23;;;9.52;;
56830;SDS011;42713;42.676;23.352;2023-07-24T05:11:34;18.38;;;10.25;;
56830;SDS011;42713;42.676;23.352;2023-07-24T05:13:59;18.85;;;9.55;;
56830;SDS011;42713;42.676;23.352;2023-07-24T05:16:25;19.55;;;9.82;;
56830;SDS011;42713;42.676;23.352;2023-07-24T05:18:50;21.48;;;10.52;;
56830;SDS011;42713;42.676;23.352;2023-07-24T05:21:16;17.38;;;9.93;;
56830;SDS011;42713;42.676;23.352;2023-07-24T05:23:41;18.20;;;10.57;;
56830;SDS011;42713;42.676;23.352;2023-07-24T05:26:07;18.30;;;11.18;;
56830;SDS011;42713;42.676;23.352;2023-07-24T05:28:32;20.02;;;10.85;;
56830;SDS011;42713;42.676;23.352;2023-07-24T05:31:05;20.92;;;10.30;;
56830;SDS011;42713;42.676;23.352;2023-07-24T05:33:31;18.15;;;10.82;;
56830;SDS011;42713;42.676;23.352;2023-07-24T05:35:57;21.75;;;11.27;;
56830;SDS011;42713;42.676;23.352;2023-07-24T05:38:26;17.40;;;10.43;;
56830;SDS011;42713;42.676;23.352;2023-07-24T05:40:58;25.42;;;12.43;;
56830;SDS011;42713;42.676;23.352;2023-07-24T05:43:26;18.75;;;10.65;;
56830;SDS011;42713;42.676;23.352;2023-07-24T05:45:55;20.48;;;10.68;;
56830;SDS011;42713;42.676;23.352;2023-07-24T05:48:22;19.90;;;11.05;;
56830;SDS011;42713;42.676;23.352;2023-07-24T05:50:48;17.60;;;10.10;;
56830;SDS011;42713;42.676;23.352;2023-07-24T05:53:14;18.92;;;10.43;;
56830;SDS011;42713;42.676;23.352;2023-07-24T05:55:40;18.65;;;11.48;;
56830;SDS011;42713;42.676;23.352;2023-07-24T05:58:07;18.95;;;10.98;;
56830;SDS011;42713;42.676;23.352;2023-07-24T06:00:33;20.25;;;10.32;;
56830;SDS011;42713;42.676;23.352;2023-07-24T06:02:58;22.08;;;10.27;;
56830;SDS011;42713;42.676;23.352;2023-07-24T06:05:24;20.35;;;10.68;;
56830;SDS011;42713;42.676;23.352;2023-07-24T06:07:49;18.65;;;9.73;;
56830;SDS011;42713;42.676;23.352;2023-07-24T06:10:15;19.33;;;10.02;;
56830;SDS011;42713;42.676;23.352;2023-07-24T06:12:40;16.08;;;9.25;;
56830;SDS011;42713;42.676;23.352;2023-07-24T06:15:06;16.73;;;9.60;;
56830;SDS011;42713;42.676;23.352;2023-07-24T06:17:32;21.50;;;11.88;;
56830;SDS011;42713;42.676;23.352;2023-07-24T06:19:58;21.70;;;10.73;;
56830;SDS011;42713;42.676;23.352;2023-07-24T06:22:23;21.65;;;9.95;;
56830;SDS011;42713;42.676;23.352;2023-07-24T06:24:49;19.85;;;9.45;;
56830;SDS011;42713;42.676;23.352;2023-07-24T06:27:14;13.90;;;8.45;;
56830;SDS011;42713;42.676;23.352;2023-07-24T06:29:40;21.25;;;9.30;;
56830;SDS011;42713;42.676;23.352;2023-07-24T06:32:06;15.43;;;8.10;;
56830;SDS011;42713;42.676;23.352;2023-07-24T06:34:32;20.20;;;8.43;;
56830;SDS011;42713;42.676;23.352;2023-07-24T06:36:57;20.80;;;9.02;;
56830;SDS011;42713;42.676;23.352;2023-07-24T06:39:23;15.82;;;8.25;;
56830;SDS011;42713;42.676;23.352;2023-07-24T06:41:48;18.20;;;8.13;;
56830;SDS011;42713;42.676;23.352;2023-07-24T06:44:16;16.30;;;8.13;;
56830;SDS011;42713;42.676;23.352;2023-07-24T06:46:41;25.23;;;8.98;;
56830;SDS011;42713;42.676;23.352;2023-07-24T06:49:07;15.98;;;8.57;;
56830;SDS011;42713;42.676;23.352;2023-07-24T06:51:32;17.48;;;8.25;;
56830;SDS011;42713;42.676;23.352;2023-07-24T06:53:58;14.02;;;8.30;;
56830;SDS011;42713;42.676;23.352;2023-07-24T06:56:23;14.63;;;7.57;;
56830;SDS011;42713;42.676;23.352;2023-07-24T06:58:49;12.68;;;7.65;;
56830;SDS011;42713;42.676;23.352;2023-07-24T07:01:14;15.10;;;7.68;;
56830;SDS011;42713;42.676;23.352;2023-07-24T07:03:40;17.10;;;8.65;;
56830;SDS011;42713;42.676;23.352;2023-07-24T07:06:05;16.00;;;8.93;;
56830;SDS011;42713;42.676;23.352;2023-07-24T07:08:31;12.70;;;8.10;;
56830;SDS011;42713;42.676;23.352;2023-07-24T07:11:00;14.95;;;8.02;;
56830;SDS011;42713;42.676;23.352;2023-07-24T07:13:26;16.65;;;8.15;;
56830;SDS011;42713;42.676;23.352;2023-07-24T07:15:55;14.60;;;8.38;;
56830;SDS011;42713;42.676;23.352;2023-07-24T07:18:21;13.18;;;7.93;;
56830;SDS011;42713;42.676;23.352;2023-07-24T07:20:47;13.88;;;7.75;;
56830;SDS011;42713;42.676;23.352;2023-07-24T07:23:14;15.13;;;7.60;;
56830;SDS011;42713;42.676;23.352;2023-07-24T07:25:39;17.23;;;7.78;;
56830;SDS011;42713;42.676;23.352;2023-07-24T07:28:05;16.02;;;8.40;;
56830;SDS011;42713;42.676;23.352;2023-07-24T07:30:31;12.88;;;7.70;;
56830;SDS011;42713;42.676;23.352;2023-07-24T07:33:02;16.27;;;7.25;;
56830;SDS011;42713;42.676;23.352;2023-07-24T07:35:53;16.75;;;7.95;;
56830;SDS011;42713;42.676;23.352;2023-07-24T07:38:19;18.77;;;9.27;;
56830;SDS011;42713;42.676;23.352;2023-07-24T07:40:47;21.10;;;9.10;;
56830;SDS011;42713;42.676;23.352;2023-07-24T07:43:19;15.95;;;8.65;;
56830;SDS011;42713;42.676;23.352;2023-07-24T07:45:46;22.45;;;9.88;;
56830;SDS011;42713;42.676;23.352;2023-07-24T07:48:17;18.15;;;9.55;;
56830;SDS011;42713;42.676;23.352;2023-07-24T07:50:52;18.30;;;8.80;;
56830;SDS011;42713;42.676;23.352;2023-07-24T07:53:20;14.18;;;8.02;;
56830;SDS011;42713;42.676;23.352;2023-07-24T07:55:56;16.13;;;8.30;;
56830;SDS011;42713;42.676;23.352;2023-07-24T07:58:23;15.20;;;8.73;;
56830;SDS011;42713;42.676;23.352;2023-07-24T08:00:52;19.33;;;8.55;;
56830;SDS011;42713;42.676;23.352;2023-07-24T08:03:17;18.83;;;9.60;;
56830;SDS011;42713;42.676;23.352;2023-07-24T08:05:43;22.25;;;9.85;;
56830;SDS011;42713;42.676;23.352;2023-07-24T08:08:08;16.13;;;9.35;;
56830;SDS011;42713;42.676;23.352;2023-07-24T08:10:37;14.88;;;8.85;;
56830;SDS011;42713;42.676;23.352;2023-07-24T08:13:03;16.25;;;8.68;;
56830;SDS011;42713;42.676;23.352;2023-07-24T08:15:28;17.50;;;9.35;;
56830;SDS011;42713;42.676;23.352;2023-07-24T08:17:54;20.08;;;9.35;;
56830;SDS011;42713;42.676;23.352;2023-07-24T08:20:19;16.15;;;9.60;;
56830;SDS011;42713;42.676;23.352;2023-07-24T08:22:45;17.75;;;8.77;;
56830;SDS011;42713;42.676;23.352;2023-07-24T08:25:11;15.32;;;8.80;;
56830;SDS011;42713;42.676;23.352;2023-07-24T08:27:37;19.63;;;9.02;;
56830;SDS011;42713;42.676;23.352;2023-07-24T08:30:02;18.75;;;9.02;;
56830;SDS011;42713;42.676;23.352;2023-07-24T08:32:29;16.20;;;9.35;;
56830;SDS011;42713;42.676;23.352;2023-07-24T08:34:55;17.42;;;8.98;;
56830;SDS011;42713;42.676;23.352;2023-07-24T08:37:20;24.27;;;10.10;;
56830;SDS011;42713;42.676;23.352;2023-07-24T08:39:48;26.25;;;10.82;;
56830;SDS011;42713;42.676;23.352;2023-07-24T08:42:14;18.50;;;10.10;;
56830;SDS011;42713;42.676;23.352;2023-07-24T08:44:40;15.93;;;8.40;;
56830;SDS011;42713;42.676;23.352;2023-07-24T08:47:09;17.33;;;9.73;;
56830;SDS011;42713;42.676;23.352;2023-07-24T08:49:36;18.70;;;9.23;;
56830;SDS011;42713;42.676;23.352;2023-07-24T08:52:03;21.05;;;9.45;;
56830;SDS011;42713;42.676;23.352;2023-07-24T08:54:30;24.75;;;9.50;;
56830;SDS011;42713;42.676;23.352;2023-07-24T08:57:00;20.77;;;9.45;;
56830;SDS011;42713;42.676;23.352;2023-07-24T08:59:27;19.90;;;9.88;;
56830;SDS011;42713;42.676;23.352;2023-07-24T09:01:53;23.27;;;11.35;;
56830;SDS011;42713;42.676;23.352;2023-07-24T09:04:19;21.35;;;10.32;;
56830;SDS011;42713;42.676;23.352;2023-07-24T09:06:44;23.85;;;10.38;;
56830;SDS011;42713;42.676;23.352;2023-07-24T09:12:14;24.00;;;10.25;;
56830;SDS011;42713;42.676;23.352;2023-07-24T09:14:40;21.45;;;9.25;;
56830;SDS011;42713;42.676;23.352;2023-07-24T09:17:09;17.73;;;9.10;;
56830;SDS011;42713;42.676;23.352;2023-07-24T09:19:36;18.70;;;9.68;;
56830;SDS011;42713;42.676;23.352;2023-07-24T09:22:09;19.15;;;10.00;;
56830;SDS011;42713;42.676;23.352;2023-07-24T09:24:36;17.73;;;10.18;;
56830;SDS011;42713;42.676;23.352;2023-07-24T09:27:04;22.45;;;10.73;;
56830;SDS011;42713;42.676;23.352;2023-07-24T09:29:31;17.77;;;9.80;;
56830;SDS011;42713;42.676;23.352;2023-07-24T09:32:01;20.60;;;10.15;;
56830;SDS011;42713;42.676;23.352;2023-07-24T09:34:27;20.48;;;9.88;;
56830;SDS011;42713;42.676;23.352;2023-07-24T09:36:54;19.25;;;9.75;;
56830;SDS011;42713;42.676;23.352;2023-07-24T09:39:27;19.77;;;10.00;;
56830;SDS011;42713;42.676;23.352;2023-07-24T09:41:52;20.50;;;9.65;;
56830;SDS011;42713;42.676;23.352;2023-07-24T09:44:19;18.23;;;10.38;;
56830;SDS011;42713;42.676;23.352;2023-07-24T09:46:48;21.73;;;9.88;;
56830;SDS011;42713;42.676;23.352;2023-07-24T09:49:14;19.77;;;10.10;;
56830;SDS011;42713;42.676;23.352;2023-07-24T09:51:40;23.88;;;9.95;;
56830;SDS011;42713;42.676;23.352;2023-07-24T09:54:15;20.30;;;10.10;;
56830;SDS011;42713;42.676;23.352;2023-07-24T09:56:50;21.05;;;10.60;;
56830;SDS011;42713;42.676;23.352;2023-07-24T09:59:17;24.42;;;10.85;;
56830;SDS011;42713;42.676;23.352;2023-07-24T10:01:44;24.17;;;9.55;;
56830;SDS011;42713;42.676;23.352;2023-07-24T10:04:11;18.77;;;9.93;;
56830;SDS011;42713;42.676;23.352;2023-07-24T10:06:38;18.95;;;9.95;;
56830;SDS011;42713;42.676;23.352;2023-07-24T10:09:04;21.73;;;9.95;;
56830;SDS011;42713;42.676;23.352;2023-07-24T10:11:44;19.17;;;9.55;;
56830;SDS011;42713;42.676;23.352;2023-07-24T10:14:13;18.00;;;9.98;;
56830;SDS011;42713;42.676;23.352;2023-07-24T10:16:39;25.15;;;10.07;;
56830;SDS011;42713;42.676;23.352;2023-07-24T10:19:12;22.77;;;10.25;;
56830;SDS011;42713;42.676;23.352;2023-07-24T10:21:43;23.15;;;10.30;;
56830;SDS011;42713;42.676;23.352;2023-07-24T10:24:11;22.58;;;10.90;;
56830;SDS011;42713;42.676;23.352;2023-07-24T10:26:37;25.33;;;10.52;;
56830;SDS011;42713;42.676;23.352;2023-07-24T10:29:02;17.50;;;9.75;;
56830;SDS011;42713;42.676;23.352;2023-07-24T10:31:28;20.67;;;10.05;;
56830;SDS011;42713;42.676;23.352;2023-07-24T10:33:55;18.73;;;9.55;;
56830;SDS011;42713;42.676;23.352;2023-07-24T10:36:39;18.50;;;9.65;;
56830;SDS011;42713;42.676;23.352;2023-07-24T10:39:13;18.42;;;9.82;;
56830;SDS011;42713;42.676;23.352;2023-07-24T10:41:39;19.73;;;10.18;;
56830;SDS011;42713;42.676;23.352;2023-07-24T10:44:05;28.83;;;9.93;;
56830;SDS011;42713;42.676;23.352;2023-07-24T10:46:37;23.17;;;10.15;;
56830;SDS011;42713;42.676;23.352;2023-07-24T10:49:07;19.73;;;9.30;;
56830;SDS011;42713;42.676;23.352;2023-07-24T10:51:34;23.77;;;9.67;;
56830;SDS011;42713;42.676;23.352;2023-07-24T10:54:02;21.33;;;9.77;;
56830;SDS011;42713;42.676;23.352;2023-07-24T10:56:29;22.45;;;9.48;;
56830;SDS011;42713;42.676;23.352;2023-07-24T10:59:04;22.60;;;8.75;;
56830;SDS011;42713;42.676;23.352;2023-07-24T11:01:31;16.60;;;8.52;;
56830;SDS011;42713;42.676;23.352;2023-07-24T11:03:57;20.00;;;8.25;;
56830;SDS011;42713;42.676;23.352;2023-07-24T11:06:26;18.77;;;8.45;;
56830;SDS011;42713;42.676;23.352;2023-07-24T11:08:56;24.23;;;8.07;;
56830;SDS011;42713;42.676;23.352;2023-07-24T11:11:34;20.63;;;8.65;;
56830;SDS011;42713;42.676;23.352;2023-07-24T11:14:03;18.38;;;8.38;;
56830;SDS011;42713;42.676;23.352;2023-07-24T11:16:29;15.77;;;6.35;;
56830;SDS011;42713;42.676;23.352;2023-07-24T11:18:58;17.08;;;6.60;;
56830;SDS011;42713;42.676;23.352;2023-07-24T11:21:24;14.77;;;6.50;;
56830;SDS011;42713;42.676;23.352;2023-07-24T11:23:54;15.60;;;6.80;;
56830;SDS011;42713;42.676;23.352;2023-07-24T11:26:24;23.15;;;7.15;;
56830;SDS011;42713;42.676;23.352;2023-07-24T11:28:51;16.13;;;6.80;;
56830;SDS011;42713;42.676;23.352;2023-07-24T11:31:17;19.33;;;7.38;;
56830;SDS011;42713;42.676;23.352;2023-07-24T11:33:46;19.90;;;7.75;;
56830;SDS011;42713;42.676;23.352;2023-07-24T11:36:13;16.70;;;7.43;;
56830;SDS011;42713;42.676;23.352;2023-07-24T11:38:44;15.40;;;7.60;;
56830;SDS011;42713;42.676;23.352;2023-07-24T11:41:13;17.80;;;6.97;;
56830;SDS011;42713;42.676;23.352;2023-07-24T11:43:45;18.60;;;6.93;;
56830;SDS011;42713;42.676;23.352;2023-07-24T11:46:11;14.68;;;7.63;;
56830;SDS011;42713;42.676;23.352;2023-07-24T11:48:40;20.13;;;7.38;;
56830;SDS011;42713;42.676;23.352;2023-07-24T11:51:09;17.85;;;7.60;;
56830;SDS011;42713;42.676;23.352;2023-07-24T11:53:39;16.77;;;7.32;;
56830;SDS011;42713;42.676;23.352;2023-07-24T11:56:12;17.85;;;7.72;;
56830;SDS011;42713;42.676;23.352;2023-07-24T11:58:39;17.80;;;8.02;;
56830;SDS011;42713;42.676;23.352;2023-07-24T12:01:05;21.50;;;7.80;;
56830;SDS011;42713;42.676;23.352;2023-07-24T12:03:30;17.35;;;7.18;;
56830;SDS011;42713;42.676;23.352;2023-07-24T12:05:56;17.65;;;7.85;;
56830;SDS011;42713;42.676;23.352;2023-07-24T12:11:25;18.73;;;7.63;;
56830;SDS011;42713;42.676;23.352;2023-07-24T12:13:54;19.30;;;7.50;;
56830;SDS011;42713;42.676;23.352;2023-07-24T12:16:23;21.23;;;8.40;;
56830;SDS011;42713;42.676;23.352;2023-07-24T12:18:50;17.73;;;7.88;;
56830;SDS011;42713;42.676;23.352;2023-07-24T12:21:16;15.35;;;7.38;;
56830;SDS011;42713;42.676;23.352;2023-07-24T12:23:51;14.43;;;6.80;;
56830;SDS011;42713;42.676;23.352;2023-07-24T12:26:17;14.57;;;7.75;;
56830;SDS011;42713;42.676;23.352;2023-07-24T12:28:43;18.55;;;7.38;;
56830;SDS011;42713;42.676;23.352;2023-07-24T12:31:11;17.75;;;7.72;;
56830;SDS011;42713;42.676;23.352;2023-07-24T12:33:37;15.73;;;7.43;;
56830;SDS011;42713;42.676;23.352;2023-07-24T12:36:02;16.75;;;7.60;;
56830;SDS011;42713;42.676;23.352;2023-07-24T12:38:31;16.60;;;7.60;;
56830;SDS011;42713;42.676;23.352;2023-07-24T12:41:00;13.18;;;6.95;;
56830;SDS011;42713;42.676;23.352;2023-07-24T12:43:25;14.05;;;7.30;;
56830;SDS011;42713;42.676;23.352;2023-07-24T12:45:51;18.95;;;7.65;;
56830;SDS011;42713;42.676;23.352;2023-07-24T12:48:17;15.80;;;7.20;;
56830;SDS011;42713;42.676;23.352;2023-07-24T12:50:45;18.83;;;7.70;;
56830;SDS011;42713;42.676;23.352;2023-07-24T12:53:13;14.18;;;7.13;;
56830;SDS011;42713;42.676;23.352;2023-07-24T12:55:39;14.50;;;7.40;;
56830;SDS011;42713;42.676;23.352;2023-07-24T12:58:04;15.18;;;7.25;;
56830;SDS011;42713;42.676;23.352;2023-07-24T13:00:29;18.23;;;8.07;;
56830;SDS011;42713;42.676;23.352;2023-07-24T13:02:56;20.40;;;7.45;;
56830;SDS011;42713;42.676;23.352;2023-07-24T13:05:22;17.10;;;7.75;;
56830;SDS011;42713;42.676;23.352;2023-07-24T13:07:47;15.60;;;7.57;;
56830;SDS011;42713;42.676;23.352;2023-07-24T13:10:13;16.58;;;7.13;;
56830;SDS011;42713;42.676;23.352;2023-07-24T13:12:38;18.15;;;7.13;;
56830;SDS011;42713;42.676;23.352;2023-07-24T13:15:04;17.98;;;7.72;;
56830;SDS011;42713;42.676;23.352;2023-07-24T13:17:30;14.82;;;6.88;;
56830;SDS011;42713;42.676;23.352;2023-07-24T13:19:56;13.82;;;7.47;;
56830;SDS011;42713;42.676;23.352;2023-07-24T13:22:24;16.25;;;7.75;;
56830;SDS011;42713;42.676;23.352;2023-07-24T13:24:52;17.70;;;7.20;;
56830;SDS011;42713;42.676;23.352;2023-07-24T13:27:18;16.67;;;7.90;;
56830;SDS011;42713;42.676;23.352;2023-07-24T13:29:43;16.00;;;7.47;;
56830;SDS011;42713;42.676;23.352;2023-07-24T13:32:12;16.23;;;7.20;;
56830;SDS011;42713;42.676;23.352;2023-07-24T13:34:40;17.15;;;7.57;;
56830;SDS011;42713;42.676;23.352;2023-07-24T13:37:05;16.70;;;7.72;;
56830;SDS011;42713;42.676;23.352;2023-07-24T13:39:31;17.17;;;7.47;;
56830;SDS011;42713;42.676;23.352;2023-07-24T13:41:58;17.63;;;7.55;;
56830;SDS011;42713;42.676;23.352;2023-07-24T13:44:24;15.50;;;7.88;;
56830;SDS011;42713;42.676;23.352;2023-07-24T13:46:49;16.38;;;8.10;;
56830;SDS011;42713;42.676;23.352;2023-07-24T13:49:15;14.32;;;7.60;;
56830;SDS011;42713;42.676;23.352;2023-07-24T13:51:40;16.15;;;7.93;;
56830;SDS011;42713;42.676;23.352;2023-07-24T13:54:06;15.25;;;7.70;;
56830;SDS011;42713;42.676;23.352;2023-07-24T13:56:31;18.42;;;8.15;;
56830;SDS011;42713;42.676;23.352;2023-07-24T13:59:00;13.10;;;6.97;;
56830;SDS011;42713;42.676;23.352;2023-07-24T14:01:25;19.05;;;7.97;;
56830;SDS011;42713;42.676;23.352;2023-07-24T14:03:51;16.67;;;8.10;;
56830;SDS011;42713;42.676;23.352;2023-07-24T14:06:17;15.27;;;7.70;;
56830;SDS011;42713;42.676;23.352;2023-07-24T14:08:42;14.88;;;8.07;;
56830;SDS011;42713;42.676;23.352;2023-07-24T14:11:08;19.52;;;7.50;;
56830;SDS011;42713;42.676;23.352;2023-07-24T14:13:33;17.50;;;8.05;;
56830;SDS011;42713;42.676;23.352;2023-07-24T14:15:58;13.57;;;7.90;;
56830;SDS011;42713;42.676;23.352;2023-07-24T14:18:24;15.13;;;8.63;;
56830;SDS011;42713;42.676;23.352;2023-07-24T14:20:49;13.73;;;8.10;;
56830;SDS011;42713;42.676;23.352;2023-07-24T14:23:18;14.32;;;7.28;;
56830;SDS011;42713;42.676;23.352;2023-07-24T14:25:43;15.63;;;7.53;;
56830;SDS011;42713;42.676;23.352;2023-07-24T14:28:09;15.60;;;8.02;;